Time,TemperatureF,DewpointF,PressureIn,WindDirection,WindDirectionDegrees,WindSpeedMPH,WindSpeedGustMPH,Humidity,HourlyPrecipIn,Conditions,Clouds,dailyrainin,SolarRadiationWatts/m^2,SoftwareType,DateUTC
2013-05-28 00:01:00,85.0,65.0,-100.00,SSE,163,16.0,26.0,52,0.00,,,0.00,506.000000,,2013-05-28 00:01:00,
2013-05-28 00:32:00,86.0,66.0,-100.00,SSE,147,18.0,25.0,51,0.00,,,0.00,268.000000,,2013-05-28 00:32:00,
2013-05-28 00:42:00,86.0,66.0,-100.00,SSE,147,18.0,25.0,51,0.00,,,0.00,268.000000,,2013-05-28 00:42:00,
2013-05-28 00:52:00,86.0,66.0,-100.00,SSE,147,18.0,25.0,51,0.00,,,0.00,268.000000,,2013-05-28 00:52:00,
2013-05-28 01:01:00,86.0,66.0,-100.00,SSE,147,18.0,25.0,51,0.00,,,0.00,268.000000,,2013-05-28 01:01:00,
2013-05-28 01:32:00,83.0,65.0,-100.00,SSE,163,16.0,26.0,54,0.00,,,0.00,113.000000,,2013-05-28 01:32:00,
2013-05-28 01:42:00,83.0,65.0,-100.00,SSE,163,16.0,26.0,54,0.00,,,0.00,113.000000,,2013-05-28 01:42:00,
2013-05-28 01:52:00,83.0,65.0,-100.00,SSE,163,16.0,26.0,54,0.00,,,0.00,113.000000,,2013-05-28 01:52:00,
2013-05-28 02:02:00,83.0,65.0,-100.00,SSE,163,16.0,26.0,54,0.00,,,0.00,113.000000,,2013-05-28 02:02:00,
2013-05-28 02:32:00,81.0,65.0,-100.00,SSE,153,8.0,19.0,59,0.00,,,0.00,9.000000,,2013-05-28 02:32:00,
2013-05-28 02:42:00,81.0,65.0,-100.00,SSE,153,8.0,19.0,59,0.00,,,0.00,9.000000,,2013-05-28 02:42:00,
2013-05-28 02:52:00,81.0,65.0,-100.00,SSE,153,8.0,19.0,59,0.00,,,0.00,9.000000,,2013-05-28 02:52:00,
2013-05-28 03:01:00,81.0,65.0,-100.00,SSE,153,8.0,19.0,59,0.00,,,0.00,9.000000,,2013-05-28 03:01:00,
2013-05-28 03:33:00,79.0,67.0,-100.00,SE,145,8.0,12.0,67,0.00,,,0.00,0.000000,,2013-05-28 03:33:00,
2013-05-28 03:43:00,79.0,67.0,-100.00,SE,145,8.0,12.0,67,0.00,,,0.00,0.000000,,2013-05-28 03:43:00,
2013-05-28 03:53:00,79.0,67.0,-100.00,SE,145,8.0,12.0,67,0.00,,,0.00,0.000000,,2013-05-28 03:53:00,
2013-05-28 04:02:00,79.0,67.0,-100.00,SE,145,8.0,12.0,67,0.00,,,0.00,0.000000,,2013-05-28 04:02:00,
2013-05-28 04:33:00,79.0,68.0,-100.00,SE,142,12.0,16.0,68,0.00,,,0.00,0.000000,,2013-05-28 04:33:00,
2013-05-28 04:43:00,79.0,68.0,-100.00,SE,142,12.0,16.0,68,0.00,,,0.00,0.000000,,2013-05-28 04:43:00,
2013-05-28 04:53:00,79.0,68.0,-100.00,SE,142,12.0,16.0,68,0.00,,,0.00,0.000000,,2013-05-28 04:53:00,
2013-05-28 05:02:00,79.0,68.0,-100.00,SE,142,12.0,16.0,68,0.00,,,0.00,0.000000,,2013-05-28 05:02:00,
2013-05-28 05:33:00,78.0,69.0,-100.00,SSE,147,16.0,26.0,73,0.00,,,0.00,0.000000,,2013-05-28 05:33:00,
2013-05-28 05:42:00,78.0,69.0,-100.00,SSE,147,16.0,26.0,73,0.00,,,0.00,0.000000,,2013-05-28 05:42:00,
2013-05-28 05:52:00,78.0,69.0,-100.00,SSE,147,16.0,26.0,73,0.00,,,0.00,0.000000,,2013-05-28 05:52:00,
2013-05-28 06:02:00,78.0,69.0,-100.00,SSE,147,16.0,26.0,73,0.00,,,0.00,0.000000,,2013-05-28 06:02:00,
2013-05-28 06:32:00,77.0,69.0,-100.00,SE,137,14.0,22.0,76,0.00,,,0.00,0.000000,,2013-05-28 06:32:00,
2013-05-28 06:42:00,77.0,69.0,-100.00,SE,137,14.0,22.0,76,0.00,,,0.00,0.000000,,2013-05-28 06:42:00,
2013-05-28 06:52:00,77.0,69.0,-100.00,SE,137,14.0,22.0,76,0.00,,,0.00,0.000000,,2013-05-28 06:52:00,
2013-05-28 07:01:00,77.0,69.0,-100.00,SE,137,14.0,22.0,76,0.00,,,0.00,0.000000,,2013-05-28 07:01:00,
2013-05-28 07:32:00,77.0,69.0,-100.00,SSE,150,10.0,23.0,77,0.00,,,0.00,0.000000,,2013-05-28 07:32:00,
2013-05-28 07:42:00,77.0,69.0,-100.00,SSE,150,10.0,23.0,77,0.00,,,0.00,0.000000,,2013-05-28 07:42:00,
2013-05-28 07:52:00,77.0,69.0,-100.00,SSE,150,10.0,23.0,77,0.00,,,0.00,0.000000,,2013-05-28 07:52:00,
2013-05-28 08:02:00,77.0,69.0,-100.00,SSE,150,10.0,23.0,77,0.00,,,0.00,0.000000,,2013-05-28 08:02:00,
2013-05-28 08:32:00,76.0,68.0,-100.00,SSE,156,13.0,19.0,77,0.00,,,0.00,0.000000,,2013-05-28 08:32:00,
2013-05-28 08:42:00,76.0,68.0,-100.00,SSE,156,13.0,19.0,77,0.00,,,0.00,0.000000,,2013-05-28 08:42:00,
2013-05-28 08:52:00,76.0,68.0,-100.00,SSE,156,13.0,19.0,77,0.00,,,0.00,0.000000,,2013-05-28 08:52:00,
2013-05-28 09:01:00,76.0,68.0,-100.00,SSE,156,13.0,19.0,77,0.00,,,0.00,0.000000,,2013-05-28 09:01:00,
2013-05-28 09:33:00,75.0,67.0,-100.00,SSE,155,12.0,19.0,76,0.00,,,0.00,0.000000,,2013-05-28 09:33:00,
2013-05-28 09:43:00,75.0,67.0,-100.00,SSE,155,12.0,19.0,76,0.00,,,0.00,0.000000,,2013-05-28 09:43:00,
2013-05-28 09:54:00,75.0,67.0,-100.00,SSE,155,12.0,19.0,76,0.00,,,0.00,0.000000,,2013-05-28 09:54:00,
2013-05-28 10:03:00,75.0,67.0,-100.00,SSE,155,12.0,19.0,76,0.00,,,0.00,0.000000,,2013-05-28 10:03:00,
2013-05-28 10:32:00,72.0,65.0,-100.00,SE,137,7.0,16.0,80,0.00,,,0.00,0.000000,,2013-05-28 10:32:00,
2013-05-28 10:43:00,72.0,65.0,-100.00,SE,137,7.0,16.0,80,0.00,,,0.00,0.000000,,2013-05-28 10:43:00,
2013-05-28 10:53:00,72.0,65.0,-100.00,SE,137,7.0,16.0,80,0.00,,,0.00,0.000000,,2013-05-28 10:53:00,
2013-05-28 11:02:00,72.0,65.0,-100.00,SE,137,7.0,16.0,80,0.00,,,0.00,0.000000,,2013-05-28 11:02:00,
2013-05-28 11:32:00,71.0,65.0,-100.00,SE,141,7.0,12.0,80,0.00,,,0.00,0.000000,,2013-05-28 11:32:00,
2013-05-28 11:42:00,71.0,65.0,-100.00,SE,141,7.0,12.0,80,0.00,,,0.00,0.000000,,2013-05-28 11:42:00,
2013-05-28 11:52:00,71.0,65.0,-100.00,SE,141,7.0,12.0,80,0.00,,,0.00,0.000000,,2013-05-28 11:52:00,
2013-05-28 12:01:00,71.0,65.0,-100.00,SE,141,7.0,12.0,80,0.00,,,0.00,0.000000,,2013-05-28 12:01:00,
2013-05-28 12:32:00,70.0,64.0,-100.00,SE,146,6.0,11.0,82,0.00,,,0.00,4.000000,,2013-05-28 12:32:00,
2013-05-28 12:42:00,70.0,64.0,-100.00,SE,146,6.0,11.0,82,0.00,,,0.00,4.000000,,2013-05-28 12:42:00,
2013-05-28 12:52:00,70.0,64.0,-100.00,SE,146,6.0,11.0,82,0.00,,,0.00,4.000000,,2013-05-28 12:52:00,
2013-05-28 13:01:00,70.0,64.0,-100.00,SE,146,6.0,11.0,82,0.00,,,0.00,4.000000,,2013-05-28 13:01:00,
2013-05-28 13:32:00,71.0,63.0,-100.00,SSE,163,14.0,20.0,77,0.00,,,0.00,74.000000,,2013-05-28 13:32:00,
2013-05-28 13:42:00,71.0,63.0,-100.00,SSE,163,14.0,20.0,77,0.00,,,0.00,74.000000,,2013-05-28 13:42:00,
2013-05-28 13:52:00,71.0,63.0,-100.00,SSE,163,14.0,20.0,77,0.00,,,0.00,74.000000,,2013-05-28 13:52:00,
2013-05-28 14:02:00,71.0,63.0,-100.00,SSE,163,14.0,20.0,77,0.00,,,0.00,74.000000,,2013-05-28 14:02:00,
2013-05-28 14:32:00,71.0,63.0,-100.00,SSE,148,16.0,27.0,75,0.00,,,0.00,90.000000,,2013-05-28 14:32:00,
2013-05-28 14:42:00,71.0,63.0,-100.00,SSE,148,16.0,27.0,75,0.00,,,0.00,90.000000,,2013-05-28 14:42:00,
2013-05-28 14:52:00,71.0,63.0,-100.00,SSE,148,16.0,27.0,75,0.00,,,0.00,90.000000,,2013-05-28 14:52:00,
2013-05-28 15:01:00,71.0,63.0,-100.00,SSE,148,16.0,27.0,75,0.00,,,0.00,90.000000,,2013-05-28 15:01:00,
2013-05-28 15:33:00,73.0,64.0,-100.00,South,175,13.0,21.0,74,0.00,,,0.00,71.000000,,2013-05-28 15:33:00,
2013-05-28 15:43:00,73.0,64.0,-100.00,South,175,13.0,21.0,74,0.00,,,0.00,71.000000,,2013-05-28 15:43:00,
2013-05-28 15:53:00,73.0,64.0,-100.00,South,175,13.0,21.0,74,0.00,,,0.00,71.000000,,2013-05-28 15:53:00,
2013-05-28 16:03:00,73.0,64.0,-100.00,South,175,13.0,21.0,74,0.00,,,0.00,71.000000,,2013-05-28 16:03:00,
2013-05-28 16:33:00,74.0,65.0,-100.00,SSE,158,15.0,23.0,74,0.00,,,0.00,99.000000,,2013-05-28 16:33:00,
2013-05-28 16:42:00,74.0,65.0,-100.00,SSE,158,15.0,23.0,74,0.00,,,0.00,99.000000,,2013-05-28 16:42:00,
2013-05-28 16:52:00,74.0,65.0,-100.00,SSE,158,15.0,23.0,74,0.00,,,0.00,99.000000,,2013-05-28 16:52:00,
2013-05-28 17:02:00,74.0,65.0,-100.00,SSE,158,15.0,23.0,74,0.00,,,0.00,99.000000,,2013-05-28 17:02:00,
2013-05-28 17:32:00,76.0,66.0,-100.00,SSE,156,14.0,25.0,71,0.00,,,0.00,232.000000,,2013-05-28 17:32:00,
2013-05-28 17:42:00,76.0,66.0,-100.00,SSE,156,14.0,25.0,71,0.00,,,0.00,232.000000,,2013-05-28 17:42:00,
2013-05-28 17:52:00,76.0,66.0,-100.00,SSE,156,14.0,25.0,71,0.00,,,0.00,232.000000,,2013-05-28 17:52:00,
2013-05-28 18:01:00,76.0,66.0,-100.00,SSE,156,14.0,25.0,71,0.00,,,0.00,232.000000,,2013-05-28 18:01:00,
2013-05-28 18:32:00,80.0,67.0,-100.00,SE,140,13.0,22.0,64,0.00,,,0.00,341.000000,,2013-05-28 18:32:00,
2013-05-28 18:42:00,80.0,67.0,-100.00,SE,140,13.0,22.0,64,0.00,,,0.00,341.000000,,2013-05-28 18:42:00,
2013-05-28 18:52:00,80.0,67.0,-100.00,SE,140,13.0,22.0,64,0.00,,,0.00,341.000000,,2013-05-28 18:52:00,
2013-05-28 19:01:00,80.0,67.0,-100.00,SE,140,13.0,22.0,64,0.00,,,0.00,341.000000,,2013-05-28 19:01:00,
2013-05-28 19:32:00,81.0,66.0,-100.00,SSE,158,14.0,22.0,60,0.00,,,0.00,406.000000,,2013-05-28 19:32:00,
2013-05-28 19:42:00,81.0,66.0,-100.00,SSE,158,14.0,22.0,60,0.00,,,0.00,406.000000,,2013-05-28 19:42:00,
2013-05-28 19:52:00,81.0,66.0,-100.00,SSE,158,14.0,22.0,60,0.00,,,0.00,406.000000,,2013-05-28 19:52:00,
2013-05-28 20:01:00,81.0,66.0,-100.00,SSE,158,14.0,22.0,60,0.00,,,0.00,406.000000,,2013-05-28 20:01:00,
2013-05-28 20:32:00,83.0,65.0,-100.00,SE,142,12.0,17.0,55,0.00,,,0.00,392.000000,,2013-05-28 20:32:00,
2013-05-28 20:42:00,83.0,65.0,-100.00,SE,142,12.0,17.0,55,0.00,,,0.00,392.000000,,2013-05-28 20:42:00,
2013-05-28 20:52:00,83.0,65.0,-100.00,SE,142,12.0,17.0,55,0.00,,,0.00,392.000000,,2013-05-28 20:52:00,
2013-05-28 21:01:00,83.0,65.0,-100.00,SE,142,12.0,17.0,55,0.00,,,0.00,392.000000,,2013-05-28 21:01:00,
2013-05-28 21:33:00,83.0,64.0,-100.00,SSE,151,14.0,21.0,53,0.00,,,0.00,325.000000,,2013-05-28 21:33:00,
2013-05-28 21:43:00,83.0,64.0,-100.00,SSE,151,14.0,21.0,53,0.00,,,0.00,325.000000,,2013-05-28 21:43:00,
2013-05-28 21:53:00,83.0,64.0,-100.00,SSE,151,14.0,21.0,53,0.00,,,0.00,325.000000,,2013-05-28 21:53:00,
2013-05-28 22:02:00,83.0,64.0,-100.00,SSE,151,14.0,21.0,53,0.00,,,0.00,325.000000,,2013-05-28 22:02:00,
2013-05-28 22:33:00,86.0,65.0,-100.00,SE,142,16.0,25.0,50,0.00,,,0.00,421.000000,,2013-05-28 22:33:00,
2013-05-28 22:42:00,86.0,65.0,-100.00,SE,142,16.0,25.0,50,0.00,,,0.00,421.000000,,2013-05-28 22:42:00,
2013-05-28 22:52:00,86.0,65.0,-100.00,SE,142,16.0,25.0,50,0.00,,,0.00,421.000000,,2013-05-28 22:52:00,
2013-05-28 23:02:00,86.0,65.0,-100.00,SE,142,16.0,25.0,50,0.00,,,0.00,421.000000,,2013-05-28 23:02:00,
2013-05-28 23:32:00,85.0,64.0,-100.00,SSE,147,10.0,24.0,50,0.00,,,0.00,309.000000,,2013-05-28 23:32:00,
2013-05-28 23:42:00,85.0,64.0,-100.00,SSE,147,10.0,24.0,50,0.00,,,0.00,309.000000,,2013-05-28 23:42:00,
2013-05-28 23:52:00,85.0,64.0,-100.00,SSE,147,10.0,24.0,50,0.00,,,0.00,309.000000,,2013-05-28 23:52:00,